Time;durP1;ratioP1;P1;durP2;ratioP2;P2;SDS_P1;SDS_P2;PMS_P1;PMS_P2;Temp;Humidity;BMP_temperature;BMP_pressure;BME280_temperature;BME280_humidity;BME280_pressure;Samples;Min_cycle;Max_cycle;Signal;HPM_P1;HPM_P2
2023/10/20 00:00:15;;;;;;;14.70;8.30;;;16.30;99.90;;;;;;5073125;28;20020;-78
2023/10/20 00:02:42;;;;;;;11.95;7.32;;;16.30;99.90;;;;;;5073257;28;20032;-78
2023/10/20 00:05:11;;;;;;;12.55;6.95;;;16.20;99.90;;;;;;5055454;28;20033;-78
2023/10/20 00:07:37;;;;;;;11.90;7.47;;;16.20;99.90;;;;;;5073101;28;20021;-78
2023/10/20 00:10:05;;;;;;;12.95;6.95;;;16.30;99.90;;;;;;5073201;28;20033;-77
2023/10/20 00:12:31;;;;;;;13.65;7.53;;;16.20;99.90;;;;;;5055265;28;20067;-77
2023/10/20 00:14:56;;;;;;;13.35;7.10;;;16.20;99.90;;;;;;5072986;28;20025;-78
2023/10/20 00:17:22;;;;;;;13.93;8.00;;;16.30;99.90;;;;;;5055538;28;20021;-78
2023/10/20 00:19:48;;;;;;;10.80;7.00;;;16.20;99.90;;;;;;5073055;28;20063;-77
2023/10/20 00:22:15;;;;;;;10.50;6.75;;;16.30;99.90;;;;;;5072867;28;20029;-77
2023/10/20 00:24:41;;;;;;;11.25;6.95;;;16.30;99.90;;;;;;5055608;28;20033;-78
2023/10/20 00:27:08;;;;;;;11.57;6.95;;;16.30;99.90;;;;;;5072827;28;20024;-78
2023/10/20 00:29:34;;;;;;;14.20;7.60;;;16.30;99.90;;;;;;5072798;28;20048;-77
2023/10/20 00:32:00;;;;;;;13.10;7.55;;;16.30;99.90;;;;;;5072727;28;20483;-78
2023/10/20 00:34:25;;;;;;;12.07;6.95;;;16.30;99.90;;;;;;5055175;28;20029;-78
2023/10/20 00:36:51;;;;;;;12.15;7.57;;;16.30;99.90;;;;;;5072761;28;20025;-78
2023/10/20 00:39:17;;;;;;;11.30;7.43;;;16.30;99.90;;;;;;5038576;28;20026;-78
2023/10/20 00:41:42;;;;;;;13.10;7.72;;;16.20;99.90;;;;;;5055324;28;20036;-78
2023/10/20 00:44:09;;;;;;;16.10;7.95;;;16.20;99.90;;;;;;5055164;28;20059;-77
2023/10/20 00:46:35;;;;;;;14.50;7.78;;;16.20;99.90;;;;;;5039065;28;20089;-78
2023/10/20 00:49:02;;;;;;;13.23;7.88;;;16.20;99.90;;;;;;5072628;28;20025;-78
2023/10/20 00:51:28;;;;;;;17.23;9.43;;;16.20;99.90;;;;;;5054820;28;20045;-77
2023/10/20 00:53:58;;;;;;;14.85;8.50;;;16.20;99.90;;;;;;5072698;28;20116;-78
2023/10/20 00:56:25;;;;;;;16.20;8.32;;;16.10;99.90;;;;;;5054995;28;20028;-77
2023/10/20 00:58:51;;;;;;;14.70;8.10;;;16.10;99.90;;;;;;5055129;28;20021;-77
2023/10/20 01:01:17;;;;;;;15.00;8.48;;;16.10;99.90;;;;;;5074063;28;20059;-78
2023/10/20 01:03:42;;;;;;;15.45;8.07;;;16.10;99.90;;;;;;5058470;28;20100;-77
2023/10/20 01:06:08;;;;;;;14.80;8.25;;;16.10;99.90;;;;;;5058461;28;20048;-78
2023/10/20 01:08:34;;;;;;;16.20;9.10;;;16.10;99.90;;;;;;5058389;28;20057;-78
2023/10/20 01:10:59;;;;;;;16.02;8.95;;;16.10;99.90;;;;;;5041962;28;20028;-77
2023/10/20 01:13:25;;;;;;;16.52;8.70;;;16.10;99.90;;;;;;5075985;28;20033;-77
2023/10/20 01:15:51;;;;;;;15.80;9.10;;;16.00;99.90;;;;;;5058455;28;20024;-77
2023/10/20 01:18:17;;;;;;;15.07;8.30;;;16.00;99.90;;;;;;5075878;28;20025;-77
2023/10/20 01:20:44;;;;;;;14.68;8.68;;;16.00;99.90;;;;;;5075936;28;20033;-78
2023/10/20 01:23:10;;;;;;;17.00;9.50;;;16.00;99.90;;;;;;5058157;28;20021;-78
2023/10/20 01:25:36;;;;;;;17.70;9.50;;;16.00;99.90;;;;;;5025342;28;20033;-77
2023/10/20 01:28:03;;;;;;;15.82;8.90;;;16.00;99.90;;;;;;5075706;28;20091;-77
2023/10/20 01:30:29;;;;;;;20.15;9.70;;;16.00;99.90;;;;;;5041690;28;20029;-77
2023/10/20 01:32:54;;;;;;;14.30;8.82;;;16.00;99.90;;;;;;5058127;28;20511;-78
2023/10/20 01:35:20;;;;;;;21.38;9.60;;;16.00;99.90;;;;;;5075531;28;20021;-77
2023/10/20 01:37:46;;;;;;;17.20;8.80;;;16.00;99.90;;;;;;5058028;28;20081;-77
2023/10/20 01:40:12;;;;;;;15.38;8.75;;;16.00;99.90;;;;;;5075473;28;20041;-77
2023/10/20 01:42:38;;;;;;;16.50;8.82;;;15.90;99.90;;;;;;5057874;28;20080;-77
2023/10/20 01:45:05;;;;;;;14.52;8.63;;;15.90;99.90;;;;;;5057694;28;20029;-78
2023/10/20 01:47:31;;;;;;;15.60;8.18;;;15.90;99.90;;;;;;5075356;28;20059;-77
2023/10/20 01:49:57;;;;;;;15.40;8.75;;;15.90;99.90;;;;;;5075272;28;20021;-78
2023/10/20 01:52:23;;;;;;;13.75;8.48;;;15.90;99.90;;;;;;5057434;28;20127;-78
2023/10/20 01:54:48;;;;;;;15.95;8.50;;;15.90;99.90;;;;;;5075258;28;20025;-78
2023/10/20 01:57:14;;;;;;;14.23;8.50;;;15.90;99.90;;;;;;5057507;28;20032;-77
2023/10/20 01:59:39;;;;;;;14.48;8.93;;;15.90;99.90;;;;;;5075130;28;20024;-77
2023/10/20 02:02:05;;;;;;;14.85;8.10;;;15.80;99.90;;;;;;5075082;28;20399;-78
2023/10/20 02:04:31;;;;;;;17.10;7.90;;;15.80;99.90;;;;;;5057525;28;20055;-78
2023/10/20 02:06:57;;;;;;;14.68;7.82;;;15.80;99.90;;;;;;5057264;28;20017;-78
2023/10/20 02:09:25;;;;;;;18.30;9.07;;;15.80;99.90;;;;;;5040723;28;20063;-77
2023/10/20 02:11:52;;;;;;;13.20;7.57;;;15.80;99.90;;;;;;5074635;28;20025;-77
2023/10/20 02:14:18;;;;;;;17.00;8.70;;;15.80;99.90;;;;;;5074855;28;20024;-77
2023/10/20 02:16:43;;;;;;;14.43;7.72;;;15.80;99.90;;;;;;5057244;28;20029;-78
2023/10/20 02:19:10;;;;;;;14.07;8.32;;;15.80;99.90;;;;;;5040652;28;20028;-77
2023/10/20 02:21:37;;;;;;;13.63;7.35;;;15.80;99.90;;;;;;5057356;28;20571;-78
2023/10/20 02:24:03;;;;;;;15.13;7.93;;;15.80;99.90;;;;;;5074858;28;20092;-78
2023/10/20 02:26:29;;;;;;;12.90;7.38;;;15.80;99.90;;;;;;5074773;28;20057;-78
2023/10/20 02:28:55;;;;;;;16.45;9.35;;;15.80;99.90;;;;;;5057101;28;20025;-78
2023/10/20 02:31:20;;;;;;;14.25;8.52;;;15.80;99.90;;;;;;5056782;28;20043;-78
2023/10/20 02:33:47;;;;;;;16.60;8.63;;;15.80;99.90;;;;;;5056725;28;20029;-77
2023/10/20 02:36:20;;;;;;;17.00;8.20;;;15.80;99.90;;;;;;5074431;28;20031;-77
2023/10/20 02:38:47;;;;;;;16.50;8.40;;;15.80;99.90;;;;;;5056784;28;20033;-77
2023/10/20 02:41:14;;;;;;;14.48;7.95;;;15.70;99.90;;;;;;5074310;28;20021;-78
2023/10/20 02:43:40;;;;;;;14.93;8.63;;;15.70;99.90;;;;;;5056603;28;20021;-77
2023/10/20 02:46:06;;;;;;;15.57;8.38;;;15.70;99.90;;;;;;5074173;28;20044;-77
2023/10/20 02:48:33;;;;;;;15.25;8.30;;;15.70;99.90;;;;;;5056540;28;20025;-78
2023/10/20 02:51:11;;;;;;;18.83;8.15;;;15.70;99.90;;;;;;5073892;28;20048;-78
2023/10/20 02:53:40;;;;;;;17.35;8.88;;;15.70;99.90;;;;;;5074111;28;20021;-77
2023/10/20 02:56:26;;;;;;;17.27;9.77;;;15.70;99.90;;;;;;5074082;28;20022;-78
2023/10/20 02:58:52;;;;;;;14.40;8.30;;;15.70;99.90;;;;;;5039570;28;20040;-77
2023/10/20 03:01:18;;;;;;;17.42;8.60;;;15.70;99.90;;;;;;5056484;28;20112;-77
2023/10/20 03:03:44;;;;;;;15.98;8.80;;;15.70;99.90;;;;;;5039873;28;20025;-77
2023/10/20 03:06:10;;;;;;;15.45;8.45;;;15.70;99.90;;;;;;5073939;28;20056;-78
2023/10/20 03:08:37;;;;;;;14.35;7.93;;;15.70;99.90;;;;;;5073812;28;20048;-78
2023/10/20 03:11:04;;;;;;;15.52;8.48;;;15.70;99.90;;;;;;5056141;28;20391;-77
2023/10/20 03:13:31;;;;;;;15.25;8.75;;;15.60;99.90;;;;;;5056176;28;20025;-76
2023/10/20 03:15:56;;;;;;;15.48;8.32;;;15.60;99.90;;;;;;5073741;28;20028;-78
2023/10/20 03:18:23;;;;;;;16.40;8.90;;;15.70;99.90;;;;;;5055968;28;20028;-77
2023/10/20 03:20:50;;;;;;;16.38;8.73;;;15.70;99.90;;;;;;5055889;28;20025;-78
2023/10/20 03:23:19;;;;;;;18.17;9.18;;;15.70;99.90;;;;;;5055988;28;20029;-78
2023/10/20 03:25:45;;;;;;;19.25;8.88;;;15.70;99.90;;;;;;5073515;28;20029;-78
2023/10/20 03:28:10;;;;;;;16.98;8.73;;;15.70;99.90;;;;;;5055848;28;20035;-78
2023/10/20 03:30:40;;;;;;;17.92;9.60;;;15.60;99.90;;;;;;5055756;28;20040;-78
2023/10/20 03:33:07;;;;;;;19.10;9.43;;;15.60;99.90;;;;;;5073467;28;20027;-77
2023/10/20 03:35:32;;;;;;;16.33;8.90;;;15.60;99.90;;;;;;5073302;28;20022;-77
2023/10/20 03:38:00;;;;;;;16.60;9.32;;;15.60;99.90;;;;;;5055734;28;20029;-77
2023/10/20 03:40:42;;;;;;;19.25;10.57;;;15.60;99.90;;;;;;5056111;28;20032;-78
2023/10/20 03:43:09;;;;;;;14.70;9.10;;;15.60;99.90;;;;;;5073359;28;20025;-78
2023/10/20 03:45:41;;;;;;;17.08;9.68;;;15.60;99.90;;;;;;5073222;28;20362;-78
2023/10/20 03:48:10;;;;;;;17.77;10.02;;;15.60;99.90;;;;;;5056290;28;20025;-77
2023/10/20 03:50:38;;;;;;;17.08;10.07;;;15.60;99.90;;;;;;5072938;28;20021;-77
2023/10/20 03:53:05;;;;;;;20.65;10.35;;;15.60;99.90;;;;;;5073400;28;20100;-77
2023/10/20 03:55:30;;;;;;;20.13;10.32;;;15.60;99.90;;;;;;5073167;28;20159;-78
2023/10/20 03:57:56;;;;;;;18.05;10.18;;;15.60;99.90;;;;;;5073137;28;20029;-78
2023/10/20 04:00:28;;;;;;;20.23;9.98;;;15.70;99.90;;;;;;5039109;28;20085;-77
2023/10/20 04:02:55;;;;;;;18.48;10.25;;;15.70;99.90;;;;;;5055530;28;20032;-78
2023/10/20 04:05:21;;;;;;;18.73;10.63;;;15.60;99.90;;;;;;5073048;28;20048;-78
2023/10/20 04:07:47;;;;;;;20.55;11.45;;;15.60;99.90;;;;;;5073054;28;20021;-78
2023/10/20 04:10:13;;;;;;;21.65;10.77;;;15.60;99.90;;;;;;5072985;28;20046;-77
2023/10/20 04:12:39;;;;;;;22.05;12.23;;;15.60;99.90;;;;;;5055262;28;20091;-77
2023/10/20 04:15:08;;;;;;;20.20;11.60;;;15.60;99.90;;;;;;5055423;28;20017;-77
2023/10/20 04:17:40;;;;;;;20.83;11.45;;;15.60;99.90;;;;;;5055254;28;20025;-77
2023/10/20 04:20:07;;;;;;;24.70;12.32;;;15.60;99.90;;;;;;5072956;28;20021;-77
2023/10/20 04:22:33;;;;;;;18.95;11.15;;;15.60;99.90;;;;;;5055308;28;20040;-77
2023/10/20 04:24:59;;;;;;;21.30;11.65;;;15.60;99.90;;;;;;5055249;28;20483;-77
2023/10/20 04:57:50;;;;;;;21.70;12.00;;;15.50;99.90;;;;;;5076321;28;20029;-78
2023/10/20 05:00:36;;;;;;;23.08;12.68;;;15.50;99.90;;;;;;5076520;28;20025;-77
2023/10/20 05:05:40;;;;;;;22.52;12.90;;;15.50;99.90;;;;;;5076282;28;20052;-77
2023/10/20 05:10:37;;;;;;;23.70;12.35;;;15.50;99.90;;;;;;5043806;28;20032;-77
2023/10/20 05:13:03;;;;;;;23.58;12.60;;;15.50;99.90;;;;;;5076072;28;20036;-78
2023/10/20 05:15:32;;;;;;;21.30;13.30;;;15.50;99.90;;;;;;5058430;28;20029;-77
2023/10/20 05:17:58;;;;;;;21.90;13.00;;;15.50;99.90;;;;;;5075940;28;20013;-77
2023/10/20 05:20:24;;;;;;;21.58;12.75;;;15.50;99.90;;;;;;5075922;28;20056;-77
2023/10/20 05:22:50;;;;;;;20.88;12.65;;;15.50;99.90;;;;;;5075873;28;20021;-78
2023/10/20 05:25:16;;;;;;;23.33;13.60;;;15.60;99.90;;;;;;5058221;28;20060;-78
2023/10/20 05:27:42;;;;;;;21.27;12.20;;;15.50;99.90;;;;;;5075723;28;20029;-79
2023/10/20 05:30:09;;;;;;;22.88;12.82;;;15.50;99.90;;;;;;5058031;28;20151;-79
2023/10/20 05:32:37;;;;;;;20.58;12.60;;;15.60;99.90;;;;;;5058003;28;20112;-79
2023/10/20 05:35:04;;;;;;;23.00;13.25;;;15.60;99.90;;;;;;5041760;28;20040;-79
2023/10/20 05:37:30;;;;;;;20.30;12.32;;;15.60;99.90;;;;;;5075498;28;20021;-79
2023/10/20 05:39:56;;;;;;;22.95;13.57;;;15.60;99.90;;;;;;5057878;28;20021;-79
2023/10/20 05:42:22;;;;;;;22.13;12.48;;;15.60;99.90;;;;;;5025044;28;20021;-78
2023/10/20 05:44:58;;;;;;;20.42;12.02;;;15.50;99.90;;;;;;5075631;28;20539;-79
2023/10/20 05:47:24;;;;;;;20.98;11.98;;;15.60;99.90;;;;;;5074945;28;20029;-79
2023/10/20 05:49:50;;;;;;;20.10;12.23;;;15.60;99.90;;;;;;5075249;28;20032;-79
2023/10/20 05:52:16;;;;;;;22.00;13.18;;;15.60;99.90;;;;;;5057452;28;20484;-79
2023/10/20 05:54:42;;;;;;;22.30;13.32;;;15.50;99.90;;;;;;5075234;28;20017;-79
2023/10/20 05:57:07;;;;;;;22.73;12.60;;;15.60;99.90;;;;;;5075208;28;20025;-79
2023/10/20 05:59:33;;;;;;;20.65;12.55;;;15.60;99.90;;;;;;5057683;28;20055;-79
2023/10/20 06:01:59;;;;;;;22.65;13.27;;;15.60;99.90;;;;;;5057547;28;20041;-79
2023/10/20 06:04:24;;;;;;;21.25;12.18;;;15.60;99.90;;;;;;5057598;28;20032;-79
2023/10/20 06:06:50;;;;;;;21.80;12.70;;;15.60;99.90;;;;;;5057474;28;20092;-79
2023/10/20 06:09:16;;;;;;;22.52;13.00;;;15.60;99.90;;;;;;5057498;28;20033;-79
2023/10/20 06:11:42;;;;;;;20.52;12.93;;;15.60;99.90;;;;;;5074858;28;20025;-79
2023/10/20 06:14:07;;;;;;;21.73;12.80;;;15.60;99.90;;;;;;5074860;28;20029;-79
2023/10/20 06:16:33;;;;;;;22.83;13.18;;;15.60;99.90;;;;;;5057374;28;20036;-79
2023/10/20 06:18:59;;;;;;;24.38;13.60;;;15.60;99.90;;;;;;5057109;28;20024;-79
2023/10/20 06:21:25;;;;;;;22.02;12.73;;;15.50;99.90;;;;;;5057323;28;20029;-79
2023/10/20 06:23:51;;;;;;;21.65;12.75;;;15.50;99.90;;;;;;5074716;28;20031;-79
2023/10/20 06:26:16;;;;;;;21.63;12.02;;;15.60;99.90;;;;;;5024235;28;20100;-79
2023/10/20 06:28:43;;;;;;;21.30;11.75;;;15.60;99.90;;;;;;5074645;28;20029;-79
2023/10/20 06:31:27;;;;;;;19.45;11.57;;;15.50;99.90;;;;;;5056870;28;20039;-79
2023/10/20 06:34:35;;;;;;;22.20;12.23;;;15.50;99.90;;;;;;5059894;28;20032;-78
2023/10/20 06:36:48;;;;;;;21.65;11.93;;;15.50;99.90;;;;;;5061074;28;20033;-78
2023/10/20 06:39:14;;;;;;;23.23;11.73;;;15.50;99.90;;;;;;5041381;28;20108;-79
2023/10/20 06:41:40;;;;;;;22.42;10.88;;;15.40;99.90;;;;;;5056900;28;20029;-78
2023/10/20 06:44:06;;;;;;;19.23;11.10;;;15.40;99.90;;;;;;5074364;28;20034;-78
2023/10/20 06:46:31;;;;;;;17.73;10.30;;;15.40;99.90;;;;;;5056619;28;20032;-78
2023/10/20 06:48:57;;;;;;;19.98;10.98;;;15.40;99.90;;;;;;5074389;28;20045;-78
2023/10/20 06:51:25;;;;;;;19.05;10.75;;;15.30;99.90;;;;;;5073948;28;20102;-78
2023/10/20 06:53:52;;;;;;;22.77;11.68;;;15.40;99.90;;;;;;5074118;28;20103;-79
2023/10/20 06:56:17;;;;;;;20.80;10.80;;;15.40;99.90;;;;;;5056565;28;20029;-80
2023/10/20 06:58:44;;;;;;;22.55;10.90;;;15.30;99.90;;;;;;5022758;28;20025;-79
2023/10/20 07:01:09;;;;;;;18.70;11.05;;;15.30;99.90;;;;;;5074038;28;20025;-82
2023/10/20 07:03:35;;;;;;;19.63;10.63;;;15.30;99.90;;;;;;5056309;28;20120;-79
2023/10/20 07:06:02;;;;;;;19.42;10.90;;;15.30;99.90;;;;;;5073910;28;20025;-79
2023/10/20 07:08:28;;;;;;;17.33;9.65;;;15.30;99.90;;;;;;5039800;28;20125;-79
2023/10/20 07:10:53;;;;;;;19.92;11.18;;;15.30;99.90;;;;;;5073758;28;20028;-79
2023/10/20 07:13:19;;;;;;;18.33;10.10;;;15.20;99.90;;;;;;5056198;28;20033;-79
2023/10/20 07:15:44;;;;;;;22.10;10.20;;;15.20;99.90;;;;;;5056177;28;20051;-79
2023/10/20 07:18:13;;;;;;;19.50;10.52;;;15.20;99.90;;;;;;5039541;28;20025;-79
2023/10/20 07:20:38;;;;;;;19.13;9.25;;;15.10;99.90;;;;;;5073716;28;20029;-80
2023/10/20 07:23:05;;;;;;;18.27;9.38;;;15.10;99.90;;;;;;5073660;28;20028;-80
2023/10/20 07:25:32;;;;;;;18.38;9.30;;;15.10;99.90;;;;;;5056059;28;20024;-80
2023/10/20 07:27:58;;;;;;;15.20;9.10;;;15.10;99.90;;;;;;5073579;28;20036;-80
2023/10/20 07:30:24;;;;;;;17.65;8.55;;;15.10;99.90;;;;;;5055866;28;20027;-80
2023/10/20 07:32:52;;;;;;;15.95;8.27;;;15.10;99.90;;;;;;5073417;28;20037;-79
2023/10/20 07:35:18;;;;;;;15.90;8.52;;;15.10;99.90;;;;;;5073396;28;20032;-80
2023/10/20 07:37:44;;;;;;;17.60;8.48;;;15.10;99.90;;;;;;5073428;28;20033;-79
2023/10/20 07:40:11;;;;;;;17.38;8.38;;;15.00;99.90;;;;;;5073333;28;20083;-80
2023/10/20 07:42:39;;;;;;;14.07;8.30;;;15.00;99.90;;;;;;5073342;28;20025;-79
2023/10/20 07:45:10;;;;;;;14.43;7.82;;;15.00;99.90;;;;;;5055675;28;20116;-80
2023/10/20 07:47:36;;;;;;;15.02;7.55;;;15.00;99.90;;;;;;5073517;28;20085;-80
2023/10/20 07:50:02;;;;;;;13.23;7.78;;;15.00;99.90;;;;;;5073381;28;20036;-80
2023/10/20 07:52:28;;;;;;;13.85;7.95;;;15.00;99.90;;;;;;5073033;28;20041;-80
2023/10/20 07:54:54;;;;;;;12.20;7.05;;;15.00;99.90;;;;;;5055730;28;20025;-80
2023/10/20 07:57:20;;;;;;;12.27;7.82;;;15.00;99.90;;;;;;5055582;28;20045;-80
2023/10/20 07:59:46;;;;;;;12.25;6.50;;;15.00;99.90;;;;;;5073141;28;20021;-79
2023/10/20 08:02:12;;;;;;;12.45;7.10;;;15.00;99.90;;;;;;5055520;28;20037;-79
2023/10/20 08:04:40;;;;;;;10.18;6.38;;;15.00;99.90;;;;;;5039008;28;20124;-79
2023/10/20 08:07:06;;;;;;;10.38;6.32;;;14.90;99.90;;;;;;5073076;28;20029;-79
2023/10/20 08:09:32;;;;;;;9.43;5.63;;;14.90;99.90;;;;;;5056207;28;20033;-80
2023/10/20 08:11:59;;;;;;;11.02;6.07;;;14.90;99.90;;;;;;5059489;28;20064;-79
2023/10/20 08:14:27;;;;;;;8.30;5.03;;;14.90;99.90;;;;;;5043076;28;20021;-79
2023/10/20 08:16:53;;;;;;;8.80;5.18;;;14.80;99.90;;;;;;5077096;28;20021;-79
2023/10/20 08:19:19;;;;;;;8.15;4.57;;;14.80;99.90;;;;;;5059628;28;20036;-80
2023/10/20 08:21:44;;;;;;;10.32;4.80;;;14.70;99.90;;;;;;5077032;28;20025;-80
2023/10/20 08:24:10;;;;;;;6.55;4.50;;;14.70;99.90;;;;;;5076978;28;20029;-79
2023/10/20 08:26:36;;;;;;;7.20;4.30;;;14.70;99.90;;;;;;5059475;28;20033;-79
2023/10/20 08:29:06;;;;;;;5.38;3.65;;;14.70;99.90;;;;;;5076842;28;20096;-80
2023/10/20 08:31:31;;;;;;;6.88;4.10;;;14.70;99.90;;;;;;5059924;28;20033;-80
2023/10/20 08:33:58;;;;;;;6.93;3.65;;;14.60;99.90;;;;;;5059175;28;20025;-80
2023/10/20 08:36:24;;;;;;;6.25;4.05;;;14.70;99.90;;;;;;5076759;28;20088;-79
2023/10/20 08:38:51;;;;;;;7.22;3.78;;;14.70;99.90;;;;;;5076655;28;20029;-79
2023/10/20 08:41:22;;;;;;;5.15;3.08;;;14.70;99.90;;;;;;5076638;28;20029;-79
2023/10/20 08:43:48;;;;;;;4.45;3.17;;;14.60;99.90;;;;;;5076591;28;20071;-79
2023/10/20 08:46:16;;;;;;;5.35;3.00;;;14.60;99.90;;;;;;5058813;28;20060;-79
2023/10/20 08:48:43;;;;;;;5.63;2.63;;;14.60;99.90;;;;;;5076502;28;20094;-79
2023/10/20 08:51:13;;;;;;;5.05;2.90;;;14.60;99.90;;;;;;5076178;28;20048;-79
2023/10/20 08:53:39;;;;;;;4.25;2.78;;;14.60;99.90;;;;;;5058779;28;20047;-80
2023/10/20 08:56:07;;;;;;;3.80;2.50;;;14.60;99.90;;;;;;5058733;28;20028;-80
2023/10/20 08:58:33;;;;;;;4.35;2.70;;;14.60;99.90;;;;;;5058664;28;20024;-79
2023/10/20 09:00:59;;;;;;;4.20;2.75;;;14.60;99.90;;;;;;5076284;28;20031;-79
2023/10/20 09:03:41;;;;;;;3.65;2.85;;;14.50;99.90;;;;;;5076226;28;20029;-79
2023/10/20 09:06:14;;;;;;;4.80;2.40;;;14.50;99.90;;;;;;5076254;28;20052;-79
2023/10/20 09:08:47;;;;;;;3.45;2.42;;;14.40;99.90;;;;;;5076160;28;20025;-77
2023/10/20 09:11:12;;;;;;;;;;;14.30;99.90;;;;;;5058877;28;20088;-77
2023/10/20 09:13:40;;;;;;;2.72;1.83;;;14.30;99.90;;;;;;5058449;28;19916;-77
2023/10/20 09:16:08;;;;;;;4.28;2.28;;;14.30;99.90;;;;;;5075964;28;20017;-78
2023/10/20 09:18:51;;;;;;;4.70;2.40;;;14.30;99.90;;;;;;5058284;28;20107;-77
2023/10/20 09:21:18;;;;;;;;;;;14.30;99.90;;;;;;5075396;28;20491;-77
2023/10/20 09:24:02;;;;;;;2.75;1.98;;;14.20;99.90;;;;;;5058434;28;20004;-77
2023/10/20 09:26:30;;;;;;;3.17;2.00;;;14.20;99.90;;;;;;5075773;28;20098;-77
2023/10/20 09:28:56;;;;;;;2.75;2.00;;;14.20;99.90;;;;;;5075771;28;20043;-77
2023/10/20 09:31:23;;;;;;;2.72;2.20;;;14.20;99.90;;;;;;5075637;28;20025;-78
2023/10/20 09:33:50;;;;;;;4.57;2.42;;;14.20;99.90;;;;;;5058278;28;20045;-78
2023/10/20 09:36:17;;;;;;;2.72;2.00;;;14.20;99.90;;;;;;5057942;28;20093;-77
2023/10/20 09:38:49;;;;;;;3.00;1.85;;;14.20;99.90;;;;;;5025109;28;20032;-77
2023/10/20 09:41:17;;;;;;;4.10;2.08;;;14.20;99.90;;;;;;5057887;28;20040;-78
2023/10/20 09:44:02;;;;;;;2.47;1.85;;;14.20;99.90;;;;;;5075503;28;20047;-77
2023/10/20 09:46:55;;;;;;;2.95;1.92;;;14.20;99.90;;;;;;5057757;28;20029;-77
2023/10/20 09:49:26;;;;;;;2.65;1.92;;;14.10;99.90;;;;;;5057767;28;20032;-78
2023/10/20 09:51:54;;;;;;;2.40;1.75;;;14.10;99.90;;;;;;5057397;28;20108;-77
2023/10/20 09:54:22;;;;;;;2.72;2.08;;;14.10;99.90;;;;;;5041593;28;20028;-78
2023/10/20 09:56:49;;;;;;;3.22;2.03;;;14.10;99.90;;;;;;5075246;28;20021;-79
2023/10/20 09:59:27;;;;;;;3.72;2.25;;;14.00;99.90;;;;;;5041137;28;20025;-79
2023/10/20 10:01:53;;;;;;;2.38;1.80;;;14.10;99.90;;;;;;5075250;28;20025;-79
2023/10/20 10:04:36;;;;;;;3.10;1.90;;;14.10;99.90;;;;;;5075204;28;20025;-79
2023/10/20 10:07:03;;;;;;;2.53;1.77;;;14.00;99.90;;;;;;5075073;28;20114;-79
2023/10/20 10:09:43;;;;;;;3.13;1.70;;;14.00;99.90;;;;;;5057618;28;20093;-78
2023/10/20 10:12:17;;;;;;;3.13;2.15;;;14.00;99.90;;;;;;5057339;28;20029;-79
2023/10/20 10:15:01;;;;;;;4.30;2.22;;;14.00;99.90;;;;;;5074996;28;20025;-79
2023/10/20 10:17:27;;;;;;;2.67;2.20;;;14.00;99.90;;;;;;5074936;28;20021;-79
2023/10/20 10:19:54;;;;;;;3.05;2.10;;;14.00;99.90;;;;;;5074857;28;20029;-79
2023/10/20 10:22:29;;;;;;;2.67;1.80;;;13.90;99.90;;;;;;5074763;28;20051;-79
2023/10/20 10:24:56;;;;;;;2.85;2.08;;;14.00;99.90;;;;;;5057143;28;20099;-79
2023/10/20 10:27:29;;;;;;;2.50;1.85;;;14.00;99.90;;;;;;5057053;28;20047;-79
2023/10/20 10:30:00;;;;;;;2.63;1.73;;;14.00;99.90;;;;;;5074694;28;20025;-79
2023/10/20 10:32:36;;;;;;;2.70;1.80;;;14.00;99.90;;;;;;5074449;28;20021;-79
2023/10/20 10:35:08;;;;;;;4.57;2.13;;;14.00;99.90;;;;;;5043205;28;20059;-79
2023/10/20 10:37:34;;;;;;;1.93;1.60;;;14.00;99.90;;;;;;5057660;28;20028;-79
2023/10/20 10:40:11;;;;;;;2.70;2.08;;;14.00;99.90;;;;;;5074461;28;20031;-80
2023/10/20 10:42:48;;;;;;;2.17;1.63;;;14.10;99.90;;;;;;5074431;28;20017;-80
2023/10/20 10:45:14;;;;;;;2.50;2.17;;;14.00;99.90;;;;;;5056732;28;20025;-79
2023/10/20 10:47:40;;;;;;;3.90;2.03;;;14.00;99.90;;;;;;5056673;28;20032;-78
2023/10/20 10:50:06;;;;;;;2.72;1.75;;;14.00;99.90;;;;;;5074266;28;20021;-79
2023/10/20 10:52:34;;;;;;;3.25;2.05;;;14.00;99.90;;;;;;5073924;28;20079;-78
2023/10/20 10:55:00;;;;;;;2.78;1.73;;;14.00;99.90;;;;;;5040052;28;20029;-78
2023/10/20 10:57:26;;;;;;;2.47;1.80;;;14.00;99.90;;;;;;5056548;28;20036;-78
2023/10/20 10:59:53;;;;;;;2.80;2.10;;;14.00;99.90;;;;;;5074090;28;20017;-78
2023/10/20 11:02:19;;;;;;;2.72;1.85;;;14.00;99.90;;;;;;5039929;28;20059;-79
2023/10/20 11:04:45;;;;;;;2.10;1.70;;;14.10;99.90;;;;;;5073923;28;20035;-78
2023/10/20 11:07:13;;;;;;;2.35;1.70;;;14.10;99.90;;;;;;5040116;28;20033;-79
2023/10/20 11:09:39;;;;;;;2.83;1.77;;;14.00;99.90;;;;;;5073942;28;20021;-79
2023/10/20 11:12:09;;;;;;;2.63;1.98;;;14.00;99.90;;;;;;5039959;28;20025;-79
2023/10/20 11:14:37;;;;;;;2.05;1.60;;;14.00;99.90;;;;;;5073865;28;20057;-80
2023/10/20 11:17:04;;;;;;;2.55;1.95;;;13.90;99.90;;;;;;5073740;28;20021;-79
2023/10/20 11:19:30;;;;;;;2.30;1.83;;;14.00;99.90;;;;;;5073752;28;20028;-79
2023/10/20 11:21:55;;;;;;;2.47;1.67;;;14.00;99.90;;;;;;5073701;28;20017;-79
2023/10/20 11:24:28;;;;;;;2.03;1.80;;;14.10;99.90;;;;;;5056144;28;20031;-79
2023/10/20 11:26:59;;;;;;;2.67;1.80;;;14.00;99.90;;;;;;5040021;28;20065;-79
2023/10/20 11:29:29;;;;;;;3.65;1.92;;;14.00;99.90;;;;;;5073632;28;20047;-80
2023/10/20 11:31:56;;;;;;;2.88;2.15;;;14.00;99.90;;;;;;5055925;28;20033;-80
2023/10/20 11:34:23;;;;;;;2.38;1.92;;;14.00;99.90;;;;;;5056107;28;20103;-80
2023/10/20 11:36:49;;;;;;;2.35;1.88;;;14.10;99.90;;;;;;5073463;28;20025;-79
2023/10/20 11:39:16;;;;;;;2.17;1.80;;;14.10;99.90;;;;;;5073470;28;20047;-80
2023/10/20 11:41:41;;;;;;;3.00;2.00;;;14.10;99.90;;;;;;5039557;28;20484;-80
2023/10/20 11:44:07;;;;;;;2.13;1.80;;;14.10;99.90;;;;;;5073268;28;20059;-80
2023/10/20 11:46:33;;;;;;;3.15;2.22;;;14.10;99.90;;;;;;5073191;28;20049;-80
2023/10/20 11:48:58;;;;;;;3.42;2.10;;;14.10;99.90;;;;;;5055928;28;20033;-80
2023/10/20 11:51:24;;;;;;;2.60;1.83;;;14.20;99.90;;;;;;5073018;28;20404;-79
2023/10/20 11:53:50;;;;;;;3.83;1.65;;;14.20;99.90;;;;;;5055605;28;20047;-80
2023/10/20 11:56:16;;;;;;;4.47;1.65;;;14.20;99.90;;;;;;5039378;28;20025;-80
2023/10/20 11:58:42;;;;;;;2.10;1.63;;;14.20;99.90;;;;;;5073130;28;20095;-79
2023/10/20 12:01:08;;;;;;;2.20;1.95;;;14.20;99.90;;;;;;5055421;28;20025;-80
2023/10/20 12:03:33;;;;;;;2.63;2.22;;;14.20;99.90;;;;;;5055670;28;20025;-80
2023/10/20 12:05:59;;;;;;;2.08;1.63;;;14.10;99.90;;;;;;5073039;28;20037;-79
2023/10/20 12:08:25;;;;;;;3.13;1.80;;;14.10;99.90;;;;;;5073085;28;20033;-79
2023/10/20 12:10:51;;;;;;;2.30;2.00;;;14.10;99.90;;;;;;5072937;28;20048;-79
2023/10/20 12:13:16;;;;;;;2.00;1.55;;;14.10;99.90;;;;;;5055384;28;20031;-79
2023/10/20 12:15:42;;;;;;;2.35;1.70;;;14.10;99.90;;;;;;5038899;28;20109;-79
2023/10/20 12:18:07;;;;;;;3.92;1.83;;;14.10;99.90;;;;;;5072986;28;20036;-79
2023/10/20 12:20:33;;;;;;;2.38;1.70;;;14.10;99.90;;;;;;5072941;28;20032;-79
2023/10/20 12:22:59;;;;;;;2.60;1.90;;;14.10;99.90;;;;;;5072927;28;20063;-78
2023/10/20 12:25:25;;;;;;;1.92;1.63;;;14.00;99.90;;;;;;5055411;28;20093;-79
2023/10/20 12:27:52;;;;;;;1.80;1.67;;;14.00;99.90;;;;;;5038937;28;20029;-79
2023/10/20 12:30:17;;;;;;;2.67;2.03;;;14.00;99.90;;;;;;5072843;28;20075;-79
2023/10/20 12:32:43;;;;;;;2.33;2.03;;;14.00;99.90;;;;;;5072755;28;20029;-79
2023/10/20 12:35:13;;;;;;;3.03;2.22;;;14.00;99.90;;;;;;5072739;28;20033;-79
2023/10/20 12:37:39;;;;;;;3.08;2.40;;;14.10;99.90;;;;;;5072852;28;20543;-79
2023/10/20 12:40:05;;;;;;;2.90;2.30;;;14.10;99.90;;;;;;5072749;28;20024;-79
2023/10/20 12:42:32;;;;;;;2.50;1.95;;;14.10;99.90;;;;;;5038774;28;20025;-79
2023/10/20 12:45:00;;;;;;;2.83;2.20;;;14.10;99.90;;;;;;5054995;28;20025;-79
2023/10/20 12:47:26;;;;;;;2.47;2.17;;;14.10;99.90;;;;;;5055491;28;20036;-79
2023/10/20 12:49:54;;;;;;;2.92;2.30;;;14.00;99.90;;;;;;5072629;28;20021;-79
2023/10/20 12:52:20;;;;;;;3.25;2.20;;;14.00;99.90;;;;;;5054593;28;20057;-78
2023/10/20 12:54:46;;;;;;;2.00;1.80;;;14.00;99.90;;;;;;5038389;28;20029;-78
2023/10/20 12:57:12;;;;;;;2.53;1.77;;;14.00;99.90;;;;;;5073986;28;20036;-79
2023/10/20 12:59:38;;;;;;;2.17;1.75;;;14.00;99.90;;;;;;5058647;28;20028;-79
2023/10/20 13:02:04;;;;;;;2.17;1.75;;;14.00;99.90;;;;;;5076298;28;20077;-78
2023/10/20 13:04:33;;;;;;;2.17;1.45;;;14.00;99.90;;;;;;5058750;28;20068;-78
2023/10/20 13:06:59;;;;;;;2.28;1.52;;;14.00;99.90;;;;;;5076202;28;20033;-78
2023/10/20 13:09:25;;;;;;;2.05;1.25;;;14.00;99.90;;;;;;5058596;28;20036;-78
2023/10/20 13:11:50;;;;;;;1.38;1.10;;;14.00;99.90;;;;;;5075993;28;20036;-79
2023/10/20 13:14:16;;;;;;;1.15;0.80;;;13.90;99.90;;;;;;5076071;28;20021;-79